createdAt,value
2017-09-29T00:01:44.545Z,9.07
2017-09-29T00:04:11.173Z,9.23
2017-09-29T00:06:37.765Z,8.23
2017-09-29T00:09:04.372Z,9.77
2017-09-29T00:11:30.985Z,8.70
2017-09-29T00:13:57.576Z,8.50
2017-09-29T00:16:24.201Z,9.00
2017-09-29T00:18:50.794Z,8.20
2017-09-29T00:21:17.416Z,9.00
2017-09-29T00:23:44.012Z,8.63
2017-09-29T00:26:10.616Z,9.23
2017-09-29T00:28:37.229Z,8.90
2017-09-29T00:31:03.831Z,8.80
2017-09-29T00:33:30.462Z,9.50
2017-09-29T00:35:57.054Z,9.43
2017-09-29T00:38:23.684Z,9.90
2017-09-29T00:40:50.279Z,9.03
2017-09-29T00:43:16.876Z,9.43
2017-09-29T00:45:43.488Z,9.50
2017-09-29T00:48:10.089Z,8.77
2017-09-29T00:50:36.712Z,9.10
2017-09-29T00:53:03.322Z,8.50
2017-09-29T00:55:29.924Z,8.10
2017-09-29T00:57:56.543Z,9.13
2017-09-29T01:00:23.658Z,8.90
2017-09-29T01:02:50.251Z,8.27
2017-09-29T01:05:16.859Z,9.07
2017-09-29T01:07:43.472Z,8.70
2017-09-29T01:10:10.088Z,9.03
2017-09-29T01:12:36.701Z,9.83
2017-09-29T01:15:03.325Z,8.47
2017-09-29T01:17:29.920Z,8.53
2017-09-29T01:19:56.511Z,7.50
2017-09-29T01:22:23.125Z,8.10
2017-09-29T01:24:49.747Z,8.20
2017-09-29T01:27:16.341Z,8.17
2017-09-29T01:29:42.965Z,8.70
2017-09-29T01:32:09.560Z,9.30
2017-09-29T01:34:36.195Z,8.20
2017-09-29T01:37:02.789Z,8.37
2017-09-29T01:39:29.381Z,8.47
2017-09-29T01:41:55.996Z,8.43
2017-09-29T01:44:22.592Z,7.90
2017-09-29T01:46:49.208Z,7.67
2017-09-29T01:49:15.814Z,8.37
2017-09-29T01:51:42.435Z,8.10
2017-09-29T01:54:09.057Z,8.60
2017-09-29T01:56:35.664Z,8.07
2017-09-29T01:59:02.256Z,8.00
2017-09-29T02:01:28.916Z,7.87
2017-09-29T02:03:55.472Z,7.63
2017-09-29T02:06:22.085Z,7.77
2017-09-29T02:08:48.676Z,8.53
2017-09-29T02:11:15.299Z,8.20
2017-09-29T02:13:41.897Z,7.97
2017-09-29T02:16:08.492Z,8.23
2017-09-29T02:18:35.100Z,7.70
2017-09-29T02:21:01.723Z,8.23
2017-09-29T02:23:28.327Z,8.80
2017-09-29T02:25:54.951Z,8.80
2017-09-29T02:28:21.704Z,9.10
2017-09-29T02:30:48.304Z,8.87
2017-09-29T02:33:14.927Z,8.33
2017-09-29T02:35:41.516Z,8.33
2017-09-29T02:38:08.141Z,8.60
2017-09-29T02:40:34.732Z,8.33
2017-09-29T02:43:01.336Z,8.43
2017-09-29T02:45:27.965Z,8.67
2017-09-29T02:47:54.556Z,8.30
2017-09-29T02:50:21.150Z,8.23
2017-09-29T02:52:47.752Z,8.83
2017-09-29T02:55:14.349Z,7.93
2017-09-29T02:57:49.217Z,7.47
2017-09-29T03:00:27.716Z,8.43
2017-09-29T03:03:06.148Z,8.27
2017-09-29T03:05:34.677Z,7.80
2017-09-29T03:08:01.264Z,7.57
2017-09-29T03:10:27.876Z,8.07
2017-09-29T03:12:54.479Z,9.33
2017-09-29T03:15:21.072Z,7.70
2017-09-29T03:17:47.687Z,8.57
2017-09-29T03:20:14.312Z,9.60
2017-09-29T03:22:40.901Z,9.07
2017-09-29T03:25:07.488Z,8.60
2017-09-29T03:27:34.101Z,7.80
2017-09-29T03:30:00.740Z,8.87
2017-09-29T03:32:27.351Z,9.23
2017-09-29T03:34:53.948Z,9.73
2017-09-29T03:37:20.565Z,8.80
2017-09-29T03:39:47.152Z,8.80
2017-09-29T03:42:13.744Z,8.90
2017-09-29T03:44:40.351Z,8.80
2017-09-29T03:47:06.971Z,8.77
2017-09-29T03:49:33.589Z,9.43
2017-09-29T03:52:03.175Z,8.03
2017-09-29T03:54:35.476Z,8.23
2017-09-29T03:57:05.335Z,9.10
2017-09-29T03:59:31.945Z,9.23
2017-09-29T04:01:58.563Z,8.70
2017-09-29T04:04:25.178Z,8.27
2017-09-29T04:06:51.780Z,9.03
2017-09-29T04:09:18.395Z,9.07
2017-09-29T04:11:44.988Z,8.87
2017-09-29T04:14:11.587Z,9.17
2017-09-29T04:16:38.208Z,8.90
2017-09-29T04:19:04.845Z,9.30
2017-09-29T04:21:31.456Z,9.40
2017-09-29T04:23:58.039Z,8.77
2017-09-29T04:26:24.663Z,8.73
2017-09-29T04:28:51.287Z,9.10
2017-09-29T04:31:17.888Z,8.97
2017-09-29T04:33:44.477Z,8.60
2017-09-29T04:36:11.092Z,8.77
2017-09-29T04:38:37.688Z,9.17
2017-09-29T04:41:04.300Z,9.40
2017-09-29T04:43:30.915Z,9.13
2017-09-29T04:45:57.508Z,9.03
2017-09-29T04:48:24.129Z,8.20
2017-09-29T04:50:50.741Z,8.30
2017-09-29T04:53:17.339Z,8.60
2017-09-29T04:55:44.021Z,9.10
2017-09-29T04:58:10.627Z,8.80
2017-09-29T05:00:37.212Z,8.60
2017-09-29T05:03:03.824Z,8.13
2017-09-29T05:05:30.449Z,8.53
2017-09-29T05:07:57.047Z,9.10
2017-09-29T05:10:23.644Z,8.60
2017-09-29T05:12:50.259Z,7.67
2017-09-29T05:15:16.864Z,8.63
2017-09-29T05:17:43.470Z,8.17
2017-09-29T05:20:10.075Z,8.20
2017-09-29T05:22:36.675Z,9.50
2017-09-29T05:25:03.276Z,7.70
2017-09-29T05:27:29.914Z,8.50
2017-09-29T05:29:56.516Z,7.90
2017-09-29T05:32:23.125Z,8.97
2017-09-29T05:34:49.733Z,8.20
2017-09-29T05:37:16.343Z,7.47
2017-09-29T05:39:42.936Z,8.00
2017-09-29T05:42:09.555Z,8.80
2017-09-29T05:44:36.152Z,9.60
2017-09-29T05:47:02.753Z,8.03
2017-09-29T05:49:29.364Z,8.50
2017-09-29T05:51:55.963Z,9.07
2017-09-29T05:54:22.572Z,7.90
2017-09-29T05:56:49.168Z,10.87
2017-09-29T05:59:15.785Z,8.17
2017-09-29T06:01:42.415Z,8.63
2017-09-29T06:04:09.012Z,8.80
2017-09-29T06:06:35.604Z,7.77
2017-09-29T06:09:02.228Z,9.20
2017-09-29T06:11:28.824Z,8.37
2017-09-29T06:13:55.424Z,8.50
2017-09-29T06:16:22.040Z,7.77
2017-09-29T06:18:48.656Z,8.77
2017-09-29T06:21:15.252Z,9.73
2017-09-29T06:23:41.864Z,9.77
2017-09-29T06:26:08.465Z,9.27
2017-09-29T06:28:35.080Z,9.47
2017-09-29T06:31:01.693Z,9.60
2017-09-29T06:33:28.294Z,9.50
2017-09-29T06:35:54.929Z,10.70
2017-09-29T06:38:21.541Z,10.00
2017-09-29T06:40:48.140Z,10.03
2017-09-29T06:43:14.757Z,9.57
2017-09-29T06:45:41.352Z,8.90
2017-09-29T06:48:07.978Z,9.10
2017-09-29T06:50:34.572Z,9.90
2017-09-29T06:53:01.164Z,9.43
2017-09-29T06:55:27.784Z,9.57
2017-09-29T06:57:54.416Z,8.87
2017-09-29T07:00:21.035Z,8.60
2017-09-29T07:02:47.637Z,9.30
2017-09-29T07:05:14.254Z,9.03
2017-09-29T07:07:40.847Z,8.27
2017-09-29T07:10:07.464Z,8.43
2017-09-29T07:12:34.093Z,8.03
2017-09-29T07:15:00.690Z,7.67
2017-09-29T07:17:27.306Z,7.87
2017-09-29T07:19:53.913Z,7.30
2017-09-29T07:22:20.516Z,6.90
2017-09-29T07:24:48.329Z,7.10
2017-09-29T07:27:20.244Z,6.67
2017-09-29T07:29:48.647Z,6.93
2017-09-29T07:32:18.038Z,5.90
2017-09-29T07:34:44.650Z,6.20
2017-09-29T07:37:11.243Z,6.07
2017-09-29T07:39:37.855Z,6.70
2017-09-29T07:42:04.448Z,5.77
2017-09-29T07:44:31.044Z,6.47
2017-09-29T07:46:57.652Z,6.10
2017-09-29T07:49:24.256Z,6.77
2017-09-29T07:51:50.872Z,5.87
2017-09-29T07:54:17.484Z,6.57
2017-09-29T07:56:44.066Z,6.87
2017-09-29T07:59:10.698Z,6.23
2017-09-29T08:01:37.293Z,6.60
2017-09-29T08:04:03.902Z,7.20
2017-09-29T08:06:30.491Z,6.03
2017-09-29T08:08:57.100Z,6.87
2017-09-29T08:11:23.692Z,5.53
2017-09-29T08:13:50.406Z,6.10
2017-09-29T08:16:17.005Z,5.60
2017-09-29T08:18:43.617Z,6.20
2017-09-29T08:21:10.204Z,6.37
2017-09-29T08:23:36.815Z,5.77
2017-09-29T08:26:03.409Z,5.53
2017-09-29T08:28:30.023Z,6.57
2017-09-29T08:30:56.653Z,5.97
2017-09-29T08:33:23.264Z,5.73
2017-09-29T08:35:49.881Z,5.63
2017-09-29T08:38:16.476Z,5.30
2017-09-29T08:40:43.067Z,6.00
2017-09-29T08:43:09.675Z,5.40
2017-09-29T08:45:36.306Z,6.57
2017-09-29T08:48:02.932Z,5.43
2017-09-29T08:50:29.536Z,5.80
2017-09-29T08:52:56.135Z,6.37
2017-09-29T08:55:22.747Z,6.07
2017-09-29T08:57:49.360Z,6.70
2017-09-29T09:00:15.980Z,5.77
2017-09-29T09:02:42.596Z,4.93
2017-09-29T09:05:09.204Z,5.90
2017-09-29T09:07:35.821Z,5.50
2017-09-29T09:10:02.414Z,4.93
2017-09-29T09:12:29.024Z,5.57
2017-09-29T09:14:55.633Z,5.47
2017-09-29T09:17:22.239Z,5.50
2017-09-29T09:19:48.854Z,5.90
2017-09-29T09:22:15.447Z,5.77
2017-09-29T09:24:42.053Z,5.80
2017-09-29T09:27:08.665Z,5.40
2017-09-29T09:29:35.252Z,6.00
2017-09-29T09:32:01.868Z,6.50
2017-09-29T09:34:28.448Z,6.80
2017-09-29T09:36:55.064Z,6.70
2017-09-29T09:39:21.657Z,6.43
2017-09-29T09:41:48.263Z,6.00
2017-09-29T09:44:14.851Z,6.03
2017-09-29T09:46:41.461Z,6.10
2017-09-29T09:49:08.897Z,5.30
2017-09-29T09:51:35.511Z,5.83
2017-09-29T09:54:02.121Z,5.90
2017-09-29T09:56:28.740Z,6.03
2017-09-29T09:58:55.352Z,6.83
2017-09-29T10:01:21.952Z,7.03
2017-09-29T10:03:48.575Z,6.80
2017-09-29T10:06:15.164Z,7.23
2017-09-29T10:08:41.776Z,7.93
2017-09-29T10:11:08.379Z,7.87
2017-09-29T10:13:34.987Z,8.30
2017-09-29T10:16:01.613Z,7.13
2017-09-29T10:18:28.209Z,7.37
2017-09-29T10:20:54.799Z,6.73
2017-09-29T10:23:21.412Z,7.90
2017-09-29T10:25:48.008Z,6.73
2017-09-29T10:28:14.625Z,7.47
2017-09-29T10:30:41.239Z,6.70
2017-09-29T10:33:07.855Z,7.10
2017-09-29T10:35:34.508Z,7.07
2017-09-29T10:38:01.213Z,6.50
2017-09-29T10:40:27.788Z,7.23
2017-09-29T10:42:54.375Z,6.17
2017-09-29T10:45:20.995Z,6.00
2017-09-29T10:47:47.599Z,6.53
2017-09-29T10:50:14.212Z,5.97
2017-09-29T10:52:40.820Z,7.00
2017-09-29T10:55:07.438Z,6.50
2017-09-29T10:57:34.033Z,6.20
2017-09-29T11:00:00.636Z,6.63
2017-09-29T11:02:27.285Z,5.13
2017-09-29T11:04:53.888Z,5.40
2017-09-29T11:07:20.512Z,6.87
2017-09-29T11:09:47.196Z,5.87
2017-09-29T11:12:13.777Z,6.13
2017-09-29T11:14:40.391Z,5.30
2017-09-29T11:17:07.021Z,5.40
2017-09-29T11:19:33.613Z,5.17
2017-09-29T11:22:00.236Z,5.07
2017-09-29T11:24:26.878Z,4.80
2017-09-29T11:26:53.484Z,5.33
2017-09-29T11:29:20.178Z,4.90
2017-09-29T11:34:19.872Z,4.90
2017-09-29T11:36:46.572Z,5.50
2017-09-29T11:39:13.200Z,4.57
2017-09-29T11:41:39.808Z,4.27
2017-09-29T11:44:06.400Z,6.30
2017-09-29T11:46:33.113Z,5.30
2017-09-29T11:48:59.729Z,6.10
2017-09-29T11:51:26.316Z,5.97
2017-09-29T11:53:52.908Z,6.70
2017-09-29T11:56:19.526Z,5.50
2017-09-29T11:58:46.111Z,6.40
2017-09-29T12:01:12.731Z,5.50
2017-09-29T12:03:39.324Z,5.90
2017-09-29T12:06:05.940Z,6.63
2017-09-29T12:08:32.560Z,6.10
2017-09-29T12:10:59.198Z,5.57
2017-09-29T12:13:25.788Z,7.17
2017-09-29T12:15:52.385Z,6.27
2017-09-29T12:18:19.000Z,6.03
2017-09-29T12:20:45.600Z,6.10
2017-09-29T12:23:12.217Z,5.73
2017-09-29T12:25:38.815Z,5.10
2017-09-29T12:28:05.464Z,5.90
2017-09-29T12:30:32.062Z,5.77
2017-09-29T12:32:58.645Z,5.60
2017-09-29T12:35:25.274Z,6.37
2017-09-29T12:37:51.860Z,5.47
2017-09-29T12:40:18.451Z,5.33
2017-09-29T12:42:45.080Z,5.03
2017-09-29T12:47:38.389Z,5.30
2017-09-29T12:50:05.013Z,5.20
2017-09-29T12:52:31.604Z,5.80
2017-09-29T12:54:58.250Z,5.53
2017-09-29T12:57:24.855Z,5.30
2017-09-29T12:59:51.444Z,6.00
2017-09-29T13:02:18.059Z,5.00
2017-09-29T13:04:44.676Z,5.90
2017-09-29T13:07:11.272Z,5.80
2017-09-29T13:09:37.861Z,5.33
2017-09-29T13:12:04.474Z,5.13
2017-09-29T13:14:31.064Z,5.17
2017-09-29T13:16:57.684Z,5.63
2017-09-29T13:19:24.280Z,5.30
2017-09-29T13:21:50.892Z,4.90
2017-09-29T13:24:17.504Z,4.90
2017-09-29T13:26:44.096Z,5.63
2017-09-29T13:29:10.715Z,5.50
2017-09-29T13:31:37.307Z,4.80
2017-09-29T13:34:03.912Z,5.80
2017-09-29T13:36:30.504Z,5.67
2017-09-29T13:38:57.129Z,5.07
2017-09-29T13:41:23.744Z,5.20
2017-09-29T13:43:50.352Z,5.70
2017-09-29T13:46:16.959Z,4.90
2017-09-29T13:48:43.577Z,5.20
2017-09-29T13:51:10.172Z,5.23
2017-09-29T13:53:36.763Z,5.10
2017-09-29T13:56:03.373Z,4.93
2017-09-29T13:58:29.964Z,5.07
2017-09-29T14:00:56.577Z,4.77
2017-09-29T14:03:23.215Z,5.20
2017-09-29T14:05:49.808Z,5.20
2017-09-29T14:08:16.435Z,5.60
2017-09-29T14:10:43.029Z,5.57
2017-09-29T14:13:09.661Z,5.50
2017-09-29T14:15:36.252Z,5.53
2017-09-29T14:18:02.848Z,5.20
2017-09-29T14:20:29.467Z,5.00
2017-09-29T14:22:56.084Z,5.10
2017-09-29T14:25:22.675Z,5.37
2017-09-29T14:27:49.272Z,5.03
2017-09-29T14:30:15.900Z,5.47
2017-09-29T14:32:42.504Z,5.53
2017-09-29T14:35:09.091Z,5.10
2017-09-29T14:37:35.700Z,5.73
2017-09-29T14:40:02.390Z,5.10
2017-09-29T14:42:28.980Z,5.30
2017-09-29T14:44:55.609Z,5.23
2017-09-29T14:47:22.305Z,5.73
2017-09-29T14:49:48.875Z,5.87
2017-09-29T14:52:15.490Z,5.47
2017-09-29T14:54:42.080Z,5.17
2017-09-29T14:57:08.712Z,5.90
2017-09-29T14:59:35.299Z,4.83
2017-09-29T15:02:01.897Z,5.43
2017-09-29T15:04:28.511Z,5.10
2017-09-29T15:06:55.100Z,4.70
2017-09-29T15:09:21.711Z,5.67
2017-09-29T15:11:48.304Z,5.40
2017-09-29T15:14:14.926Z,5.37
2017-09-29T15:16:41.512Z,5.20
2017-09-29T15:19:08.120Z,5.00
2017-09-29T15:21:34.707Z,4.90
2017-09-29T15:24:01.326Z,5.43
2017-09-29T15:26:27.908Z,5.60
2017-09-29T15:28:54.521Z,5.50
2017-09-29T15:31:21.139Z,5.23
2017-09-29T15:33:47.728Z,5.40
2017-09-29T15:36:14.347Z,5.17
2017-09-29T15:38:40.955Z,5.23
2017-09-29T15:41:07.577Z,5.63
2017-09-29T15:43:34.167Z,5.90
2017-09-29T15:46:00.781Z,4.93
2017-09-29T15:48:27.384Z,5.57
2017-09-29T15:50:54.003Z,5.10
2017-09-29T15:53:20.592Z,5.70
2017-09-29T15:55:47.198Z,5.03
2017-09-29T15:58:13.801Z,5.50
2017-09-29T16:00:40.554Z,5.13
2017-09-29T16:03:07.146Z,5.97
2017-09-29T16:05:33.740Z,4.70
2017-09-29T16:08:00.352Z,5.00
2017-09-29T16:10:26.974Z,5.20
2017-09-29T16:12:53.590Z,5.37
2017-09-29T16:15:20.214Z,5.47
2017-09-29T16:17:46.813Z,5.20
2017-09-29T16:20:13.415Z,4.80
2017-09-29T16:22:40.031Z,4.80
2017-09-29T16:25:06.631Z,5.23
2017-09-29T16:27:33.244Z,4.57
2017-09-29T16:29:59.828Z,4.57
2017-09-29T16:32:26.695Z,5.70
2017-09-29T16:34:53.279Z,5.00
2017-09-29T16:37:19.876Z,5.00
2017-09-29T16:39:46.508Z,4.97
2017-09-29T16:42:13.101Z,4.60
2017-09-29T16:44:39.703Z,4.97
2017-09-29T16:47:06.316Z,5.40
2017-09-29T16:49:32.923Z,5.83
2017-09-29T16:51:59.525Z,5.90
2017-09-29T16:54:26.152Z,6.50
2017-09-29T16:56:52.740Z,5.10
2017-09-29T16:59:20.187Z,6.20
2017-09-29T17:01:46.820Z,6.60
2017-09-29T17:04:13.411Z,5.93
2017-09-29T17:06:39.995Z,6.00
2017-09-29T17:09:06.608Z,5.73
2017-09-29T17:11:33.244Z,6.23
2017-09-29T17:13:59.832Z,8.07
2017-09-29T17:16:26.423Z,8.07
2017-09-29T17:18:53.036Z,7.40
2017-09-29T17:21:19.655Z,7.50
2017-09-29T17:23:46.262Z,6.70
2017-09-29T17:26:12.884Z,6.90
2017-09-29T17:28:39.472Z,7.57
2017-09-29T17:31:06.091Z,6.40
2017-09-29T17:33:32.687Z,7.50
2017-09-29T17:35:59.275Z,7.80
2017-09-29T17:38:25.887Z,7.10
2017-09-29T17:40:52.550Z,7.67
2017-09-29T17:43:19.148Z,8.20
2017-09-29T17:45:45.751Z,8.70
2017-09-29T17:48:12.372Z,8.87
2017-09-29T17:50:38.972Z,9.10
2017-09-29T17:53:05.593Z,9.57
2017-09-29T17:55:32.219Z,10.17
2017-09-29T17:57:58.825Z,11.27
2017-09-29T18:00:25.457Z,10.43
2017-09-29T18:02:52.060Z,10.87
2017-09-29T18:05:18.675Z,11.70
2017-09-29T18:07:45.316Z,10.10
2017-09-29T18:10:11.908Z,9.90
2017-09-29T18:12:38.529Z,10.03
2017-09-29T18:15:05.148Z,10.03
2017-09-29T18:17:31.776Z,9.50
2017-09-29T18:19:58.396Z,10.87
2017-09-29T18:22:25.002Z,11.83
2017-09-29T18:24:51.627Z,11.17
2017-09-29T18:27:18.251Z,10.27
2017-09-29T18:29:44.863Z,12.33
2017-09-29T18:32:11.457Z,8.90
2017-09-29T18:34:38.076Z,9.30
2017-09-29T18:37:04.691Z,10.40
2017-09-29T18:39:31.332Z,10.57
2017-09-29T18:41:58.659Z,10.33
2017-09-29T18:44:36.091Z,10.30
2017-09-29T18:47:15.362Z,10.00
2017-09-29T18:49:41.976Z,11.60
2017-09-29T18:52:08.648Z,9.77
2017-09-29T18:54:35.255Z,9.77
2017-09-29T18:57:01.861Z,9.77
2017-09-29T18:59:28.496Z,9.70
2017-09-29T19:01:55.117Z,9.70
2017-09-29T19:04:21.708Z,9.20
2017-09-29T19:06:48.328Z,9.87
2017-09-29T19:09:14.931Z,10.20
2017-09-29T19:11:41.535Z,9.33
2017-09-29T19:14:08.153Z,9.93
2017-09-29T19:16:34.751Z,10.10
2017-09-29T19:19:01.376Z,10.80
2017-09-29T19:21:28.424Z,9.70
2017-09-29T19:23:55.048Z,10.27
2017-09-29T19:26:21.654Z,10.07
2017-09-29T19:28:48.267Z,10.43
2017-09-29T19:31:14.863Z,9.67
2017-09-29T19:33:41.477Z,8.93
2017-09-29T19:36:08.081Z,9.43
2017-09-29T19:38:34.672Z,10.47
2017-09-29T19:41:01.303Z,9.87
2017-09-29T19:43:27.897Z,10.30
2017-09-29T19:45:54.496Z,9.07
2017-09-29T19:48:21.122Z,9.73
2017-09-29T19:50:47.737Z,10.90
2017-09-29T19:53:14.339Z,9.83
2017-09-29T19:55:40.976Z,10.03
2017-09-29T19:58:07.608Z,9.73
2017-09-29T20:00:34.218Z,10.33
2017-09-29T20:03:00.812Z,10.53
2017-09-29T20:05:27.482Z,10.00
2017-09-29T20:07:54.104Z,9.63
2017-09-29T20:10:20.705Z,10.40
2017-09-29T20:12:47.308Z,10.40
2017-09-29T20:15:13.922Z,10.97
2017-09-29T20:17:40.520Z,10.00
2017-09-29T20:20:07.154Z,10.43
2017-09-29T20:22:33.751Z,10.37
2017-09-29T20:25:00.351Z,10.33
2017-09-29T20:27:26.980Z,9.87
2017-09-29T20:29:53.588Z,10.00
2017-09-29T20:32:20.189Z,10.50
2017-09-29T20:34:46.799Z,11.03
2017-09-29T20:37:13.415Z,11.40
2017-09-29T20:39:40.074Z,10.00
2017-09-29T20:42:06.687Z,9.50
2017-09-29T20:44:33.292Z,11.03
2017-09-29T20:46:59.935Z,10.73
2017-09-29T20:49:26.521Z,10.90
2017-09-29T20:51:53.146Z,10.43
2017-09-29T20:54:19.764Z,11.17
2017-09-29T20:56:46.377Z,10.60
2017-09-29T20:59:13.001Z,10.40
2017-09-29T21:01:39.618Z,10.73
2017-09-29T21:04:06.229Z,10.57
2017-09-29T21:06:32.856Z,10.30
2017-09-29T21:08:59.464Z,10.10
2017-09-29T21:11:26.113Z,10.47
2017-09-29T21:13:52.713Z,10.60
2017-09-29T21:16:19.312Z,10.67
2017-09-29T21:18:45.928Z,9.90
2017-09-29T21:21:12.560Z,10.30
2017-09-29T21:23:39.156Z,10.70
2017-09-29T21:26:05.766Z,10.33
2017-09-29T21:28:32.384Z,10.37
2017-09-29T21:30:58.987Z,10.20
2017-09-29T21:33:25.609Z,10.60
2017-09-29T21:35:52.240Z,10.47
2017-09-29T21:38:18.843Z,9.80
2017-09-29T21:40:45.432Z,10.60
2017-09-29T21:43:12.050Z,10.93
2017-09-29T21:45:38.668Z,10.17
2017-09-29T21:48:05.288Z,11.03
2017-09-29T21:50:31.907Z,11.57
2017-09-29T21:52:58.525Z,9.70
2017-09-29T21:55:25.128Z,10.00
2017-09-29T21:57:51.726Z,9.47
2017-09-29T22:00:18.356Z,11.20
2017-09-29T22:02:44.974Z,10.17
2017-09-29T22:05:11.592Z,9.80
2017-09-29T22:07:38.195Z,11.03
2017-09-29T22:10:04.840Z,10.63
2017-09-29T22:12:31.462Z,10.50
2017-09-29T22:14:58.065Z,10.37
2017-09-29T22:17:24.664Z,10.57
2017-09-29T22:19:51.289Z,10.60
2017-09-29T22:22:17.908Z,10.50
2017-09-29T22:24:44.508Z,10.83
2017-09-29T22:27:11.136Z,10.70
2017-09-29T22:29:37.731Z,10.40
2017-09-29T22:32:04.351Z,10.60
2017-09-29T22:34:30.980Z,10.30
2017-09-29T22:36:57.580Z,9.70
2017-09-29T22:39:24.185Z,10.20
2017-09-29T22:41:50.801Z,10.10
2017-09-29T22:44:17.400Z,10.63
2017-09-29T22:46:44.129Z,8.90
2017-09-29T22:49:10.716Z,9.77
2017-09-29T22:51:37.332Z,9.60
2017-09-29T22:54:03.955Z,9.80
2017-09-29T22:56:30.560Z,10.63
2017-09-29T22:58:57.169Z,10.13
2017-09-29T23:01:23.803Z,10.03
2017-09-29T23:03:50.445Z,10.73
2017-09-29T23:06:17.040Z,10.57
2017-09-29T23:08:43.640Z,11.33
2017-09-29T23:11:10.264Z,12.80
2017-09-29T23:13:36.896Z,12.17
2017-09-29T23:16:03.518Z,12.00
2017-09-29T23:18:30.112Z,11.77
2017-09-29T23:20:56.727Z,12.00
2017-09-29T23:23:23.360Z,12.10
2017-09-29T23:25:49.960Z,11.73
2017-09-29T23:28:16.560Z,12.43
2017-09-29T23:30:43.180Z,13.00
2017-09-29T23:33:09.813Z,13.80
2017-09-29T23:35:36.413Z,13.20
2017-09-29T23:38:03.012Z,13.87
2017-09-29T23:40:29.648Z,14.07
2017-09-29T23:42:56.271Z,13.50
2017-09-29T23:45:22.891Z,13.57
2017-09-29T23:47:49.515Z,14.13
2017-09-29T23:50:16.115Z,14.50
2017-09-29T23:52:43.061Z,14.20
2017-09-29T23:55:09.665Z,14.77
2017-09-29T23:57:36.256Z,14.40
